Time;durP1;ratioP1;P1;durP2;ratioP2;P2;SDS_P1;SDS_P2;PMS_P1;PMS_P2;Temp;Humidity;BMP_temperature;BMP_pressure;BME280_temperature;BME280_humidity;BME280_pressure;Samples;Min_cycle;Max_cycle;Signal;HPM_P1;HPM_P2
2021/09/12 16:07:34;;;;;;;28.80;5.82;;;22.20;81.00;;;21.76;73.52;100657.59;5113654;27;20193;-80
2021/09/12 16:10:01;;;;;;;32.55;5.75;;;22.40;80.80;;;21.86;72.85;100656.91;5090786;27;20071;-74
2021/09/12 16:12:28;;;;;;;20.02;4.93;;;22.40;80.40;;;21.96;72.46;100668.09;5060649;28;20076;-73
2021/09/12 16:14:56;;;;;;;15.85;4.35;;;22.50;80.20;;;22.01;72.20;100665.41;5050126;28;20792;-73
2021/09/12 16:17:23;;;;;;;14.40;3.95;;;22.60;79.90;;;22.38;73.13;100655.63;5070365;28;20109;-71
2021/09/12 16:21:38;;;;;;;6.55;3.65;;;23.10;75.90;;;21.85;68.46;100650.50;5133506;27;20215;-70
2021/09/12 16:24:06;;;;;;;9.55;4.40;;;22.70;76.40;;;20.98;71.37;100659.38;5117384;28;20108;-70
2021/09/12 16:26:33;;;;;;;7.55;3.88;;;22.40;77.30;;;20.53;73.60;100652.72;5088353;28;20090;-70
2021/09/12 16:29:01;;;;;;;7.47;4.20;;;22.10;78.60;;;20.14;75.49;100652.50;5101132;28;20511;-70
2021/09/12 16:31:28;;;;;;;9.10;4.85;;;21.80;79.30;;;19.92;77.16;100658.69;5094756;28;20051;-70
2021/09/12 16:33:55;;;;;;;7.50;4.15;;;21.60;80.10;;;19.72;78.56;100650.81;5094770;28;20040;-70
2021/09/12 16:36:23;;;;;;;8.05;3.88;;;21.50;80.90;;;19.60;79.26;100647.19;5097595;28;20536;-69
2021/09/12 16:38:51;;;;;;;7.38;4.28;;;21.40;81.30;;;19.50;80.47;100646.97;5097005;28;20046;-68
2021/09/12 16:41:19;;;;;;;7.28;4.32;;;21.30;82.10;;;19.36;82.82;100651.84;5087314;28;20047;-67
2021/09/12 16:43:49;;;;;;;11.07;4.85;;;21.20;83.00;;;19.28;83.20;100646.69;5096285;28;20092;-68
2021/09/12 16:46:35;;;;;;;10.68;5.00;;;21.10;83.60;;;19.18;83.98;100655.56;5097686;28;20043;-68
2021/09/12 16:49:02;;;;;;;10.52;4.70;;;21.00;84.10;;;19.08;84.16;100656.16;5098908;28;20059;-68
2021/09/12 16:51:31;;;;;;;9.13;4.78;;;21.00;84.30;;;19.03;83.78;100650.50;5094292;28;20429;-68
2021/09/12 16:54:00;;;;;;;7.97;4.50;;;20.90;84.40;;;18.94;84.18;100655.56;5099439;28;20040;-68
2021/09/12 16:56:28;;;;;;;8.55;4.20;;;20.80;84.40;;;18.87;84.32;100651.22;5093198;28;20150;-68
2021/09/12 16:58:55;;;;;;;10.82;4.53;;;20.80;84.60;;;18.86;84.38;100646.78;5102812;28;20050;-67
2021/09/12 17:01:23;;;;;;;8.75;4.47;;;20.70;84.80;;;18.84;84.63;100649.75;5098140;28;20085;-67
2021/09/12 17:03:50;;;;;;;8.02;4.43;;;20.60;84.90;;;18.79;85.24;100648.75;5110762;22;20078;-72
2021/09/12 17:06:17;;;;;;;7.60;4.53;;;20.60;85.20;;;18.73;85.96;100647.78;5071335;28;20462;-71
2021/09/12 17:08:44;;;;;;;12.07;4.95;;;20.50;85.60;;;18.69;86.25;100647.41;5070200;28;20040;-71
2021/09/12 17:11:14;;;;;;;8.65;4.65;;;20.50;85.90;;;18.63;87.11;100645.59;5057499;28;20099;-72
2021/09/12 17:13:42;;;;;;;8.95;4.55;;;20.50;86.30;;;18.60;87.13;100648.84;5075607;28;20055;-72
2021/09/12 17:16:09;;;;;;;7.90;4.25;;;20.40;86.40;;;18.58;87.61;100642.69;5019495;28;20045;-72
2021/09/12 17:18:37;;;;;;;8.88;4.28;;;20.40;86.70;;;18.52;88.09;100649.16;4967336;28;20046;-72
2021/09/12 17:21:05;;;;;;;10.73;4.90;;;20.40;86.80;;;18.44;87.89;100652.25;5005629;28;20042;-73
2021/09/12 17:23:32;;;;;;;9.52;4.82;;;20.40;87.00;;;18.42;88.58;100651.63;5011364;28;20046;-74
2021/09/12 17:26:01;;;;;;;7.95;4.32;;;20.30;87.20;;;18.35;88.12;100655.34;5035212;28;20581;-71
2021/09/12 17:28:30;;;;;;;8.00;4.30;;;20.20;87.20;;;18.28;88.33;100656.50;5002636;28;20096;-72
2021/09/12 17:30:59;;;;;;;8.80;4.47;;;20.20;87.10;;;18.18;88.78;100651.50;5004751;28;20057;-72
2021/09/12 17:33:26;;;;;;;12.25;5.70;;;20.10;87.10;;;18.11;89.19;100656.28;5005416;28;20511;-71
2021/09/12 17:35:54;;;;;;;9.90;4.70;;;20.10;87.30;;;18.04;89.17;100653.59;5000965;28;20081;-71
2021/09/12 17:38:21;;;;;;;6.55;4.20;;;20.00;87.30;;;18.02;89.32;100652.16;5007469;28;20050;-72
2021/09/12 17:40:49;;;;;;;8.68;4.80;;;20.00;87.30;;;17.98;89.51;100652.59;5003475;28;20041;-72
2021/09/12 17:43:16;;;;;;;9.35;4.78;;;20.00;87.40;;;17.87;90.14;100647.03;5008254;28;20501;-73
2021/09/12 17:45:45;;;;;;;9.82;4.47;;;19.90;87.60;;;17.84;90.13;100645.59;5004337;28;20058;-74
2021/09/12 17:48:12;;;;;;;8.77;4.68;;;19.90;87.70;;;17.84;89.99;100658.47;5006726;28;20576;-74
2021/09/12 17:50:40;;;;;;;8.50;3.88;;;19.80;87.60;;;17.74;90.27;100653.50;4991799;28;20042;-76
2021/09/12 17:53:07;;;;;;;5.95;3.88;;;19.80;87.70;;;17.62;90.91;100663.59;4990286;28;20525;-74
2021/09/12 17:55:34;;;;;;;10.80;4.53;;;19.80;87.80;;;17.49;91.53;100659.88;4991021;28;20050;-72
2021/09/12 17:58:02;;;;;;;7.28;4.07;;;19.70;87.90;;;17.44;92.02;100662.50;4999115;28;20046;-73
2021/09/12 18:00:29;;;;;;;7.50;3.72;;;19.70;88.10;;;17.31;92.81;100663.44;4989930;28;20724;-73
2021/09/12 18:02:58;;;;;;;7.30;4.10;;;19.60;88.20;;;17.31;93.09;100668.97;5003270;28;20050;-74
2021/09/12 18:05:25;;;;;;;12.60;4.38;;;19.50;88.50;;;17.23;93.32;100665.63;5008412;28;20073;-71
2021/09/12 18:07:53;;;;;;;9.13;3.83;;;19.50;88.50;;;17.11;93.87;100668.28;5024398;28;20050;-73
2021/09/12 18:10:20;;;;;;;9.45;4.53;;;19.40;88.70;;;17.14;93.90;100670.59;5002094;28;20038;-72
2021/09/12 18:12:48;;;;;;;7.90;3.97;;;19.40;88.80;;;17.06;94.43;100671.72;5004502;28;20460;-70
2021/09/12 18:15:15;;;;;;;8.30;3.83;;;19.30;89.00;;;17.05;94.41;100674.69;5008498;28;20150;-71
2021/09/12 18:17:42;;;;;;;9.73;4.30;;;19.30;89.10;;;17.02;94.61;100673.22;5003910;28;20077;-68
2021/09/12 18:20:13;;;;;;;7.65;4.57;;;19.20;89.20;;;17.03;94.49;100680.41;5003452;28;20369;-68
2021/09/12 18:22:41;;;;;;;7.10;4.07;;;19.20;89.30;;;17.08;94.52;100682.50;5004010;28;20689;-68
2021/09/12 18:25:10;;;;;;;8.75;4.45;;;19.20;89.60;;;17.10;94.57;100689.44;4995848;28;20041;-68
2021/09/12 18:27:37;;;;;;;8.82;4.20;;;19.10;89.80;;;17.14;94.18;100689.84;4991345;28;20046;-68
2021/09/12 18:30:06;;;;;;;11.68;5.32;;;19.10;90.00;;;17.10;94.38;100699.63;5003189;28;20045;-68
2021/09/12 18:32:34;;;;;;;8.50;4.72;;;19.10;90.10;;;17.11;94.28;100696.63;4996164;28;20125;-68
2021/09/12 18:35:01;;;;;;;11.10;4.97;;;19.00;90.10;;;17.17;94.23;100701.25;4993774;28;20042;-68
2021/09/12 18:37:30;;;;;;;9.10;4.68;;;19.00;90.30;;;17.15;94.51;100700.63;4988775;28;20056;-68
2021/09/12 18:39:57;;;;;;;10.13;5.35;;;19.00;90.50;;;17.23;93.92;100705.00;4998138;28;20048;-68
2021/09/12 18:42:25;;;;;;;10.45;5.32;;;19.00;90.50;;;17.24;94.10;100705.84;4994696;28;20046;-68
2021/09/12 18:44:52;;;;;;;8.93;5.50;;;19.00;90.70;;;17.26;94.15;100703.72;5003419;28;20050;-68
2021/09/12 18:47:20;;;;;;;11.05;5.13;;;19.00;90.80;;;17.23;94.95;100704.13;5002636;28;20050;-69
2021/09/12 18:49:47;;;;;;;10.65;5.25;;;19.00;91.00;;;17.20;95.02;100703.53;4996736;28;20116;-68
2021/09/12 18:52:14;;;;;;;13.50;5.68;;;19.00;91.00;;;17.20;94.76;100717.28;4995576;28;20145;-68
2021/09/12 18:54:43;;;;;;;8.45;5.18;;;19.00;91.10;;;17.20;94.88;100714.53;4997043;28;20057;-68
2021/09/12 18:57:11;;;;;;;10.70;5.43;;;19.00;91.00;;;17.13;94.89;100721.97;4990180;28;20038;-69
2021/09/12 18:59:38;;;;;;;12.43;5.70;;;19.00;91.10;;;17.03;95.61;100729.06;4988948;28;20062;-68
2021/09/12 19:02:06;;;;;;;9.60;5.55;;;19.00;91.10;;;16.98;95.84;100722.31;4985031;28;20042;-68
2021/09/12 19:04:33;;;;;;;11.05;6.18;;;18.90;91.20;;;16.94;95.65;100725.72;4988014;28;20037;-68
2021/09/12 19:07:01;;;;;;;9.68;5.57;;;18.90;91.10;;;16.91;95.73;100724.25;5004802;28;20054;-68
2021/09/12 19:09:28;;;;;;;7.72;5.00;;;18.90;91.20;;;16.86;96.21;100726.00;5002459;28;20042;-68
2021/09/12 19:11:58;;;;;;;11.57;5.55;;;18.90;91.20;;;16.72;96.61;100733.44;4989844;28;20034;-68
2021/09/12 19:14:25;;;;;;;7.65;5.30;;;18.90;91.40;;;16.63;97.03;100726.53;4994115;28;20051;-68
2021/09/12 19:16:54;;;;;;;14.77;5.90;;;18.80;91.40;;;16.60;97.28;100733.28;5017837;28;20148;-69
2021/09/12 19:19:21;;;;;;;13.77;6.35;;;18.70;91.30;;;16.53;97.40;100737.97;4999538;28;20592;-69
2021/09/12 19:21:49;;;;;;;8.82;5.43;;;18.70;91.40;;;16.52;97.49;100742.63;5004032;28;20037;-68
2021/09/12 19:24:16;;;;;;;7.68;5.25;;;18.70;91.40;;;16.52;97.56;100730.78;5004132;28;20131;-68
2021/09/12 19:26:44;;;;;;;14.18;6.53;;;18.60;91.30;;;16.53;97.46;100743.47;5001675;28;20041;-71
2021/09/12 19:29:13;;;;;;;9.13;5.90;;;18.60;91.50;;;16.51;97.67;100748.34;4984554;28;20038;-72
2021/09/12 19:31:41;;;;;;;11.85;5.75;;;18.50;91.60;;;16.48;97.94;100744.13;4987944;28;20129;-72
2021/09/12 19:34:09;;;;;;;11.02;6.13;;;18.50;91.70;;;16.49;98.01;100748.56;4984382;28;20043;-71
2021/09/12 19:36:37;;;;;;;10.32;6.32;;;18.50;91.80;;;16.49;97.87;100751.31;4996627;28;20058;-72
2021/09/12 19:39:05;;;;;;;11.85;6.30;;;18.50;91.90;;;16.52;97.63;100747.28;5003078;28;20038;-71
2021/09/12 19:41:32;;;;;;;11.52;7.13;;;18.50;92.00;;;16.57;97.44;100750.22;4988161;28;20050;-71
2021/09/12 19:44:00;;;;;;;12.38;6.70;;;18.50;92.10;;;16.55;97.37;100742.19;4985991;28;20038;-71
2021/09/12 19:46:28;;;;;;;11.20;6.38;;;18.50;92.20;;;16.49;97.94;100742.25;4997749;28;20466;-71
2021/09/12 19:48:57;;;;;;;12.85;6.22;;;18.40;92.10;;;16.49;97.94;100750.47;5004339;28;20042;-71
2021/09/12 19:51:25;;;;;;;11.07;6.80;;;18.40;92.40;;;16.45;98.23;100751.94;5007616;28;20041;-71
2021/09/12 19:53:52;;;;;;;10.75;6.68;;;18.40;92.60;;;16.43;97.99;100743.94;5001034;28;20721;-71
2021/09/12 19:56:20;;;;;;;10.80;6.38;;;18.30;92.60;;;16.37;98.51;100742.91;4994292;28;20120;-71
2021/09/12 19:58:47;;;;;;;10.77;6.15;;;18.30;92.60;;;16.25;99.13;100741.88;5002466;28;20053;-71
2021/09/12 20:01:15;;;;;;;13.43;5.78;;;18.30;92.70;;;16.19;99.73;100751.00;5001962;28;20137;-71
2021/09/12 20:03:44;;;;;;;9.80;5.75;;;18.30;92.80;;;16.11;100.00;100745.75;5002560;28;20099;-72
2021/09/12 20:06:12;;;;;;;10.68;6.43;;;18.30;92.90;;;16.09;100.00;100753.34;5003719;28;20509;-72
2021/09/12 20:08:40;;;;;;;13.65;6.10;;;18.20;92.80;;;16.03;100.00;100747.66;5002344;28;20092;-72
2021/09/12 20:11:08;;;;;;;12.07;6.53;;;18.20;92.90;;;16.01;100.00;100741.56;5002747;28;20046;-71
2021/09/12 20:13:36;;;;;;;10.85;6.50;;;18.20;92.90;;;16.00;100.00;100739.84;4987635;28;20046;-72
2021/09/12 20:16:04;;;;;;;11.15;6.10;;;18.10;92.90;;;15.96;100.00;100743.25;5002258;28;20081;-72
2021/09/12 20:18:31;;;;;;;13.45;6.50;;;18.10;93.00;;;15.96;100.00;100748.75;5011782;28;20069;-72
2021/09/12 20:21:00;;;;;;;11.93;6.65;;;18.10;93.00;;;15.91;100.00;100745.78;5010389;28;20092;-72
2021/09/12 20:23:28;;;;;;;10.88;6.82;;;18.10;93.10;;;15.83;100.00;100749.59;5001749;28;20124;-72
2021/09/12 20:25:55;;;;;;;12.20;6.57;;;18.00;93.00;;;15.78;100.00;100750.25;5001316;28;20108;-71
2021/09/12 20:28:23;;;;;;;12.00;6.65;;;18.00;93.20;;;15.77;100.00;100750.47;5003656;28;20078;-72
2021/09/12 20:30:52;;;;;;;13.85;6.78;;;17.90;93.30;;;15.77;100.00;100750.47;5011417;28;20864;-72
2021/09/12 20:33:20;;;;;;;9.48;6.63;;;17.90;93.30;;;15.81;100.00;100754.47;5002163;28;20046;-72
2021/09/12 20:35:48;;;;;;;10.82;7.03;;;17.90;93.40;;;15.83;100.00;100755.09;4985484;28;20042;-72
2021/09/12 20:38:24;;;;;;;14.38;7.65;;;17.90;93.50;;;15.85;100.00;100755.72;4992552;28;20418;-72
2021/09/12 20:40:52;;;;;;;12.77;6.97;;;17.90;93.50;;;15.84;100.00;100751.31;5004645;28;20053;-72
2021/09/12 20:43:20;;;;;;;11.68;7.03;;;17.80;93.50;;;15.87;100.00;100759.09;5004876;28;20649;-72
2021/09/12 20:45:47;;;;;;;12.82;7.13;;;17.80;93.70;;;15.85;100.00;100758.47;5001216;28;20596;-72
2021/09/12 20:48:15;;;;;;;10.25;7.22;;;17.80;93.90;;;15.80;100.00;100752.75;5006629;28;20053;-72
2021/09/12 20:50:43;;;;;;;11.65;7.78;;;17.80;94.10;;;15.81;100.00;100752.56;5001213;28;20042;-72
2021/09/12 20:53:11;;;;;;;11.25;7.28;;;17.80;94.20;;;15.78;100.00;100757.63;4991346;28;20042;-72
2021/09/12 20:55:40;;;;;;;13.30;7.55;;;17.80;94.00;;;15.74;100.00;100761.84;5006479;28;20033;-72
2021/09/12 20:58:08;;;;;;;14.10;7.30;;;17.80;94.10;;;15.71;100.00;100760.34;5006429;28;20053;-72
2021/09/12 21:00:37;;;;;;;12.35;7.70;;;17.80;94.20;;;15.67;100.00;100770.06;5005949;28;20042;-73
2021/09/12 21:03:05;;;;;;;12.32;7.60;;;17.70;94.30;;;15.65;100.00;100763.97;5006097;28;20050;-72
2021/09/12 21:05:34;;;;;;;12.98;7.70;;;17.70;94.30;;;15.65;100.00;100761.22;5005111;28;20053;-72
2021/09/12 21:08:01;;;;;;;13.35;8.57;;;17.70;94.40;;;15.67;100.00;100758.22;5002359;28;20042;-72
2021/09/12 21:10:28;;;;;;;14.75;8.35;;;17.70;94.30;;;15.60;100.00;100766.47;4990201;28;20105;-72
2021/09/12 21:12:57;;;;;;;12.50;8.10;;;17.70;94.40;;;15.59;100.00;100764.78;5005420;28;20038;-72
2021/09/12 21:15:25;;;;;;;13.50;8.48;;;17.60;94.30;;;15.63;100.00;100766.91;5028993;28;20049;-72
2021/09/12 21:17:53;;;;;;;16.88;9.73;;;17.60;94.30;;;15.67;100.00;100774.69;5028400;28;20056;-72
2021/09/12 21:20:20;;;;;;;11.90;8.98;;;17.60;94.40;;;15.64;100.00;100763.09;5028081;28;20049;-72
2021/09/12 21:22:48;;;;;;;13.95;9.70;;;17.60;94.50;;;15.64;100.00;100765.84;5044310;28;20512;-72
2021/09/12 21:25:16;;;;;;;20.38;11.77;;;17.60;94.80;;;15.67;100.00;100760.97;5009903;28;20074;-72
2021/09/12 21:27:46;;;;;;;15.35;10.10;;;17.60;94.70;;;15.66;100.00;100764.78;4990080;28;20092;-72
2021/09/12 21:30:16;;;;;;;15.57;10.18;;;17.60;94.90;;;15.63;100.00;100772.38;4988572;28;20082;-72
2021/09/12 21:32:44;;;;;;;17.98;10.80;;;17.60;94.90;;;15.62;100.00;100769.84;4996088;28;20087;-72
2021/09/12 21:35:11;;;;;;;16.20;10.05;;;17.60;95.00;;;15.60;100.00;100778.28;5009663;28;20517;-71
2021/09/12 21:37:39;;;;;;;15.40;10.45;;;17.60;94.90;;;15.63;100.00;100772.38;5008206;28;20038;-72
2021/09/12 21:40:08;;;;;;;15.77;10.10;;;17.60;94.90;;;15.59;100.00;100775.75;5008031;28;20046;-72
2021/09/12 21:42:36;;;;;;;14.27;10.88;;;17.60;94.90;;;15.55;100.00;100774.50;5009298;28;20073;-71
2021/09/12 21:45:04;;;;;;;19.02;11.98;;;17.60;95.00;;;15.49;100.00;100778.09;5009436;28;20053;-72
2021/09/12 21:47:34;;;;;;;18.90;11.73;;;17.60;95.10;;;15.44;100.00;100776.81;5009644;28;20097;-71
2021/09/12 21:50:01;;;;;;;18.15;11.07;;;17.60;95.10;;;15.41;100.00;100784.63;5009429;28;20041;-71
2021/09/12 21:52:28;;;;;;;18.30;11.68;;;17.50;95.10;;;15.39;100.00;100781.25;5008632;28;20081;-72
2021/09/12 21:54:56;;;;;;;16.20;11.60;;;17.50;95.20;;;15.40;100.00;100793.88;5008991;28;20095;-72
2021/09/12 21:57:23;;;;;;;18.38;11.50;;;17.50;95.20;;;15.37;100.00;100794.31;5007879;28;20050;-72
2021/09/12 21:59:50;;;;;;;21.75;12.88;;;17.40;95.10;;;15.38;100.00;100794.13;5007845;28;20136;-72
2021/09/12 22:02:18;;;;;;;17.23;11.60;;;17.50;95.30;;;15.39;100.00;100795.78;5024304;28;20566;-72
2021/09/12 22:04:46;;;;;;;20.13;11.80;;;17.50;95.20;;;15.34;100.00;100801.06;5029004;28;20041;-72
2021/09/12 22:07:14;;;;;;;17.90;11.90;;;17.50;95.10;;;15.34;100.00;100800.22;5029188;28;20041;-72
2021/09/12 22:09:42;;;;;;;18.48;11.50;;;17.50;95.30;;;15.30;100.00;100798.94;5027451;28;20038;-72
2021/09/12 22:12:09;;;;;;;22.88;12.52;;;17.40;95.10;;;15.30;100.00;100804.44;5026234;28;20049;-72
2021/09/12 22:14:36;;;;;;;20.80;12.93;;;17.40;95.10;;;15.34;100.00;100805.69;5027204;28;20041;-72
2021/09/12 22:17:04;;;;;;;19.20;13.38;;;17.40;95.30;;;15.36;100.00;100809.91;5029350;28;20053;-72
2021/09/12 22:19:32;;;;;;;24.40;13.65;;;17.40;95.60;;;15.33;100.00;100799.38;5029190;28;20041;-72
2021/09/12 22:22:04;;;;;;;19.50;13.20;;;17.40;95.60;;;15.37;100.00;100806.13;5028820;28;20060;-72
2021/09/12 22:24:32;;;;;;;20.30;13.43;;;17.40;95.60;;;15.30;100.00;100804.44;5009874;28;20046;-72
2021/09/12 22:26:59;;;;;;;19.13;13.88;;;17.40;95.50;;;15.34;100.00;100802.97;5009443;28;20049;-72
2021/09/12 22:29:27;;;;;;;20.25;12.95;;;17.40;95.80;;;15.24;100.00;100815.19;4990707;28;20077;-72
2021/09/12 22:31:55;;;;;;;17.45;12.43;;;17.30;95.60;;;15.19;100.00;100814.97;5009079;28;20057;-72
2021/09/12 22:34:24;;;;;;;17.95;12.95;;;17.30;95.40;;;15.16;100.00;100801.69;5009167;28;20065;-72
2021/09/12 22:36:51;;;;;;;20.20;12.10;;;17.30;95.40;;;15.12;100.00;100814.13;5007661;28;20069;-72
2021/09/12 22:39:20;;;;;;;23.42;12.88;;;17.30;95.40;;;15.17;100.00;100806.13;5009202;28;20472;-72
2021/09/12 22:41:47;;;;;;;18.80;11.68;;;17.30;95.50;;;15.16;100.00;100809.91;5008839;28;20137;-72
2021/09/12 22:44:14;;;;;;;19.45;12.38;;;17.30;95.60;;;15.15;100.00;100810.09;5008925;28;20046;-72
2021/09/12 22:46:42;;;;;;;19.98;12.48;;;17.20;95.50;;;15.15;100.00;100812.84;5009067;28;20080;-72
2021/09/12 22:49:09;;;;;;;20.75;11.95;;;17.20;95.60;;;15.13;100.00;100810.31;5008798;28;20073;-72
2021/09/12 22:51:36;;;;;;;18.85;11.30;;;17.20;95.70;;;15.12;100.00;100813.28;5007141;28;20104;-72
2021/09/12 22:54:04;;;;;;;18.50;12.00;;;17.20;95.50;;;15.11;100.00;100817.88;5009115;28;20072;-72
2021/09/12 22:56:33;;;;;;;21.02;11.82;;;17.20;95.50;;;15.08;100.00;100817.44;5007303;28;20077;-72
2021/09/12 22:59:00;;;;;;;19.10;10.80;;;17.10;95.60;;;14.99;100.00;100820.41;5008730;28;20521;-72
2021/09/12 23:01:28;;;;;;;15.30;10.57;;;17.20;95.60;;;15.01;100.00;100822.94;5008330;28;20563;-72
2021/09/12 23:03:56;;;;;;;17.67;11.05;;;17.10;95.80;;;14.95;100.00;100821.88;5025814;23;20052;-67
2021/09/12 23:06:23;;;;;;;16.05;10.57;;;17.10;95.70;;;14.95;100.00;100818.28;5065906;28;20052;-68
2021/09/12 23:08:50;;;;;;;17.25;10.15;;;17.10;95.70;;;14.98;100.00;100812.38;5062803;28;20460;-68
2021/09/12 23:11:18;;;;;;;12.77;9.10;;;17.10;95.70;;;14.98;100.00;100823.34;5048124;28;20053;-68
2021/09/12 23:13:46;;;;;;;13.52;9.55;;;17.00;95.70;;;14.94;100.00;100822.06;5059347;28;20048;-69
2021/09/12 23:16:14;;;;;;;13.40;9.75;;;17.10;95.70;;;14.95;100.00;100821.03;5068032;28;20055;-69
2021/09/12 23:18:41;;;;;;;16.10;9.88;;;17.00;95.60;;;14.85;100.00;100816.78;5068105;28;20045;-68
2021/09/12 23:21:08;;;;;;;14.52;9.40;;;17.00;95.50;;;14.82;100.00;100811.69;5068105;28;20075;-69
2021/09/12 23:23:36;;;;;;;15.45;9.38;;;17.00;95.50;;;14.82;100.00;100819.91;5068112;28;20458;-68
2021/09/12 23:26:03;;;;;;;17.98;10.57;;;17.00;95.60;;;14.73;100.00;100821.13;5083365;28;20103;-68
2021/09/12 23:28:31;;;;;;;15.18;9.48;;;17.00;95.90;;;14.74;100.00;100819.28;5060246;28;20106;-68
2021/09/12 23:30:59;;;;;;;18.08;9.63;;;16.90;96.00;;;14.80;100.00;100827.50;5061283;28;20048;-68
2021/09/12 23:33:27;;;;;;;19.10;9.43;;;16.90;95.90;;;14.86;100.00;100823.94;5067753;28;20151;-68
2021/09/12 23:35:54;;;;;;;18.73;9.50;;;16.90;95.90;;;14.82;100.00;100819.06;5067936;28;20045;-69
2021/09/12 23:38:22;;;;;;;15.77;9.02;;;16.90;95.80;;;14.69;100.00;100819.88;5067789;28;20052;-68
2021/09/12 23:40:49;;;;;;;15.02;9.50;;;17.00;96.00;;;14.75;100.00;100823.69;5067729;28;20051;-68
2021/09/12 23:43:16;;;;;;;16.33;9.00;;;16.90;96.10;;;14.76;100.00;100826.22;5067636;28;20071;-68
2021/09/12 23:45:44;;;;;;;17.00;8.93;;;16.90;96.10;;;14.77;100.00;100827.91;5067719;28;20044;-69
2021/09/12 23:48:13;;;;;;;11.90;8.35;;;16.90;96.00;;;14.85;100.00;100830.47;5067724;28;20098;-69
2021/09/12 23:50:40;;;;;;;13.05;8.35;;;16.90;96.00;;;14.88;100.00;100828.38;5067397;28;20063;-68
2021/09/12 23:53:08;;;;;;;17.98;9.60;;;16.90;96.30;;;14.77;100.00;100827.06;5067833;28;20048;-68
2021/09/12 23:55:35;;;;;;;17.92;9.93;;;16.80;96.40;;;14.74;100.00;100827.47;5067510;28;20083;-68
2021/09/12 23:58:02;;;;;;;18.02;8.75;;;16.80;96.50;;;14.78;100.00;100829.59;5065641;28;20507;-68
